Time;durP1;ratioP1;P1;durP2;ratioP2;P2;SDS_P1;SDS_P2;PMS_P1;PMS_P2;Temp;Humidity;BMP_temperature;BMP_pressure;BME280_temperature;BME280_humidity;BME280_pressure;Samples;Min_cycle;Max_cycle;Signal;HPM_P1;HPM_P2
2022/06/19 00:01:26;;;;;;;3.10;1.30;;;;;;;22.37;45.81;99295.06;4992378;28;20054;-61
2022/06/19 00:03:55;;;;;;;4.45;1.20;;;;;;;22.29;45.88;99295.97;4992146;28;20051;-61
2022/06/19 00:06:23;;;;;;;5.05;1.73;;;;;;;22.24;45.42;99299.16;4992555;28;20054;-61
2022/06/19 00:08:51;;;;;;;5.63;1.63;;;;;;;22.19;45.59;99303.34;4992190;28;20058;-61
2022/06/19 00:11:20;;;;;;;7.13;1.73;;;;;;;22.11;45.58;99296.19;4992143;28;20046;-62
2022/06/19 00:13:47;;;;;;;3.70;1.30;;;;;;;22.06;45.80;99275.31;4990914;28;20050;-63
2022/06/19 00:16:14;;;;;;;7.07;1.30;;;;;;;22.00;45.88;99284.88;4991713;28;20058;-61
2022/06/19 00:18:41;;;;;;;4.78;1.33;;;;;;;21.95;45.69;99260.44;4992005;28;20474;-61
2022/06/19 00:21:08;;;;;;;5.90;1.55;;;;;;;21.90;45.56;99252.06;4992002;28;20108;-61
2022/06/19 00:23:35;;;;;;;5.60;1.35;;;;;;;21.86;45.67;99258.78;4990706;28;20064;-62
2022/06/19 00:26:03;;;;;;;6.00;1.75;;;;;;;21.80;45.68;99259.47;4990966;28;20389;-61
2022/06/19 00:28:29;;;;;;;5.85;1.67;;;;;;;21.74;45.70;99252.97;4991753;28;20046;-60
2022/06/19 00:30:56;;;;;;;4.82;1.25;;;;;;;21.67;45.25;99244.75;4991492;28;20054;-61
2022/06/19 00:33:23;;;;;;;9.30;1.55;;;;;;;21.61;45.80;99248.16;4991473;28;20069;-65
2022/06/19 00:35:49;;;;;;;5.10;1.80;;;;;;;21.54;45.49;99244.47;4991479;28;20054;-61
2022/06/19 00:38:16;;;;;;;4.20;1.73;;;;;;;21.46;45.89;99232.78;4991533;28;20085;-61
2022/06/19 00:40:42;;;;;;;6.80;1.60;;;;;;;21.38;45.98;99227.44;4991509;28;20549;-60
2022/06/19 00:43:09;;;;;;;9.23;1.98;;;;;;;21.33;46.40;99227.13;4991406;28;20050;-64
2022/06/19 00:45:40;;;;;;;5.93;2.13;;;;;;;21.26;46.36;99210.91;4991396;28;20061;-61
2022/06/19 00:48:30;;;;;;;4.65;1.85;;;;;;;21.19;46.09;99193.84;4990986;28;20058;-62
2022/06/19 00:51:00;;;;;;;4.70;1.60;;;;;;;21.19;46.33;99193.84;4991219;28;20050;-62
2022/06/19 00:53:35;;;;;;;9.25;2.35;;;;;;;21.12;46.32;99184.84;4991291;28;20644;-62
2022/06/19 00:56:02;;;;;;;7.18;1.42;;;;;;;21.10;46.23;99171.63;4991147;28;20058;-61
2022/06/19 00:58:36;;;;;;;5.55;1.90;;;;;;;21.03;46.46;99162.63;4991043;28;20057;-61
2022/06/19 01:01:08;;;;;;;7.82;1.88;;;;;;;20.97;46.65;99172.16;4991364;28;20093;-61
2022/06/19 01:03:53;;;;;;;10.15;2.33;;;;;;;20.92;46.41;99171.84;4990084;28;20054;-60
2022/06/19 01:06:21;;;;;;;7.78;1.92;;;;;;;20.88;46.42;99168.66;4991060;28;20081;-61
2022/06/19 01:08:49;;;;;;;7.35;1.98;;;;;;;20.82;46.44;99167.47;4989957;28;20075;-61
2022/06/19 01:11:18;;;;;;;6.38;1.67;;;;;;;20.75;46.52;99169.13;4990894;28;20491;-63
2022/06/19 01:13:45;;;;;;;6.97;1.88;;;;;;;20.69;46.95;99169.81;4989781;28;20054;-61
2022/06/19 01:16:13;;;;;;;9.00;1.95;;;;;;;20.61;47.03;99162.66;4991112;28;20050;-61
2022/06/19 01:18:41;;;;;;;10.77;2.30;;;;;;;20.59;47.07;99161.97;4989350;28;20047;-61
2022/06/19 01:21:19;;;;;;;6.90;2.05;;;;;;;20.47;47.61;99165.97;4990877;28;20647;-61
2022/06/19 01:24:23;;;;;;;7.93;2.33;;;;;;;20.42;47.67;99161.97;4991182;28;20054;-62
2022/06/19 01:26:54;;;;;;;7.85;2.38;;;;;;;20.44;47.46;99159.13;4990880;28;20051;-62
2022/06/19 01:29:21;;;;;;;8.73;2.40;;;;;;;20.42;47.75;99169.16;4991298;28;20050;-63
2022/06/19 01:31:52;;;;;;;8.68;2.38;;;;;;;20.39;47.80;99166.81;4990870;28;20077;-60
2022/06/19 01:34:27;;;;;;;7.95;2.50;;;;;;;20.33;47.85;99170.16;4990054;28;20054;-61
2022/06/19 01:37:16;;;;;;;6.38;2.13;;;;;;;20.24;48.10;99169.31;4989790;28;20046;-60
2022/06/19 01:39:48;;;;;;;10.40;2.67;;;;;;;20.23;48.01;99168.50;4990692;28;20047;-61
2022/06/19 01:42:15;;;;;;;14.93;2.63;;;;;;;20.22;47.76;99188.16;4991121;28;20054;-61
2022/06/19 01:44:44;;;;;;;8.70;2.65;;;;;;;20.17;48.14;99183.34;4990962;28;20108;-60
2022/06/19 01:47:11;;;;;;;8.38;2.53;;;;;;;20.14;47.58;99172.13;4990914;28;20100;-64
2022/06/19 01:49:44;;;;;;;11.88;2.80;;;;;;;20.10;47.56;99176.97;4990785;28;20108;-61
2022/06/19 01:52:11;;;;;;;8.88;2.25;;;;;;;20.08;47.54;99191.50;4990775;28;20050;-63
2022/06/19 01:54:42;;;;;;;10.95;2.33;;;;;;;20.03;47.57;99183.97;4989758;28;20138;-61
2022/06/19 01:57:11;;;;;;;8.65;2.25;;;;;;;20.01;47.53;99173.47;4990834;28;20433;-60
2022/06/19 01:59:40;;;;;;;7.50;2.05;;;;;;;19.97;47.61;99177.44;4991050;28;20116;-64
2022/06/19 02:02:10;;;;;;;10.25;2.83;;;;;;;19.96;47.47;99169.56;4993238;28;20058;-63
2022/06/19 02:04:37;;;;;;;7.30;2.08;;;;;;;19.95;47.48;99178.59;4994517;28;20065;-65
2022/06/19 02:07:14;;;;;;;8.50;2.70;;;;;;;19.91;47.59;99159.38;4994683;28;20105;-63
2022/06/19 02:09:41;;;;;;;8.98;2.55;;;;;;;19.90;47.18;99145.19;4993148;28;20413;-62
2022/06/19 02:12:09;;;;;;;7.78;1.88;;;;;;;19.86;47.24;99125.16;4994307;28;20178;-64
2022/06/19 02:14:35;;;;;;;8.95;2.33;;;;;;;19.85;46.94;99106.63;4993094;28;20046;-63
2022/06/19 02:17:12;;;;;;;8.15;2.10;;;;;;;19.75;46.93;99086.25;4994337;28;20112;-63
2022/06/19 02:19:39;;;;;;;6.72;2.20;;;;;;;19.75;46.49;99069.38;4994179;28;20061;-62
2022/06/19 02:22:14;;;;;;;9.45;2.22;;;;;;;19.67;46.11;99071.00;4994061;28;20054;-65
2022/06/19 02:24:42;;;;;;;11.13;2.33;;;;;;;19.66;46.21;99071.19;4994271;28;20086;-62
2022/06/19 02:27:09;;;;;;;8.93;2.58;;;;;;;19.61;46.05;99062.81;4992754;28;20558;-62
2022/06/19 02:29:38;;;;;;;7.80;2.42;;;;;;;19.55;46.16;99060.81;4992637;28;20487;-62
2022/06/19 02:32:12;;;;;;;7.18;2.42;;;;;;;19.51;46.19;99063.00;4993815;28;20506;-64
2022/06/19 02:34:42;;;;;;;7.97;2.53;;;;;;;19.47;46.53;99075.81;4991493;28;20479;-62
2022/06/19 02:37:23;;;;;;;8.70;2.40;;;;;;;19.39;46.67;99075.78;4991283;28;20570;-62
2022/06/19 02:40:14;;;;;;;10.30;2.72;;;;;;;19.38;46.71;99069.63;4992399;28;20065;-64
2022/06/19 02:42:44;;;;;;;13.48;2.45;;;;;;;19.38;46.46;99056.28;4991497;28;20053;-62
2022/06/19 02:45:15;;;;;;;8.57;2.65;;;;;;;19.36;46.50;99058.25;4991344;28;20422;-63
2022/06/19 02:47:43;;;;;;;8.98;2.20;;;;;;;19.35;46.54;99087.78;4992390;28;20482;-64
2022/06/19 02:50:18;;;;;;;8.18;2.10;;;;;;;19.33;47.18;99145.81;4991023;28;20058;-64
2022/06/19 02:52:45;;;;;;;12.38;2.90;;;;;;;19.33;47.08;99194.69;4991251;28;20042;-63
2022/06/19 02:55:14;;;;;;;15.63;2.30;;;;;;;19.34;47.28;99191.03;4992209;28;20479;-63
2022/06/19 02:57:41;;;;;;;9.25;2.33;;;;;;;19.35;47.30;99152.66;4992354;28;20046;-62
2022/06/19 03:00:15;;;;;;;11.25;2.42;;;;;;;19.35;47.92;99146.47;4991935;28;20046;-65
2022/06/19 03:02:41;;;;;;;9.18;2.58;;;;;;;19.38;47.40;99128.34;4975239;28;20108;-65
2022/06/19 03:05:21;;;;;;;15.18;2.80;;;;;;;19.33;47.76;99129.81;4992151;28;20530;-64
2022/06/19 03:07:48;;;;;;;10.55;2.75;;;;;;;19.33;47.58;99135.16;4990895;28;20050;-62
2022/06/19 03:10:15;;;;;;;11.40;2.88;;;;;;;19.27;47.42;99116.13;4992123;28;20058;-62
2022/06/19 03:12:43;;;;;;;13.32;2.50;;;;;;;19.23;47.55;99114.78;4990846;28;20488;-63
2022/06/19 03:15:12;;;;;;;18.70;3.42;;;;;;;19.16;48.04;99112.88;4992006;28;20489;-62
2022/06/19 03:17:39;;;;;;;14.27;2.75;;;;;;;19.11;47.91;99103.50;4990555;28;20050;-63
2022/06/19 03:20:08;;;;;;;9.30;2.72;;;;;;;19.05;48.06;99093.50;4990772;28;20477;-62
2022/06/19 03:22:34;;;;;;;8.15;2.20;;;;;;;19.02;48.28;99099.97;4990752;28;20498;-62
2022/06/19 03:25:01;;;;;;;12.98;2.70;;;;;;;18.99;47.99;99099.44;4991988;28;20113;-62
2022/06/19 03:27:27;;;;;;;10.98;2.97;;;;;;;18.94;48.27;99102.56;4991893;28;20101;-62
2022/06/19 03:29:54;;;;;;;14.60;2.72;;;;;;;18.91;48.09;99134.06;4991566;28;20050;-63
2022/06/19 03:32:20;;;;;;;9.98;2.80;;;;;;;18.89;48.54;99136.88;4954221;28;1079472;-64
2022/06/19 03:34:47;;;;;;;12.90;2.63;;;;;;;18.87;48.65;99136.19;4992972;28;20468;-64
2022/06/19 03:37:13;;;;;;;11.15;3.00;;;;;;;18.87;48.60;99129.03;4992731;28;20229;-64
2022/06/19 03:39:40;;;;;;;10.13;2.72;;;;;;;18.87;48.19;99134.38;4992485;28;20490;-62
2022/06/19 03:42:10;;;;;;;14.55;3.38;;;;;;;18.84;48.20;99124.00;4992375;28;20093;-65
2022/06/19 03:44:36;;;;;;;10.90;2.72;;;;;;;18.85;47.96;99127.53;4992405;28;20050;-62
2022/06/19 03:47:05;;;;;;;13.23;2.72;;;;;;;18.82;48.30;99135.81;4992677;28;20054;-65
2022/06/19 03:49:33;;;;;;;11.55;2.67;;;;;;;18.81;48.31;99131.50;4992457;28;20074;-62
2022/06/19 03:51:59;;;;;;;11.73;2.30;;;;;;;18.80;48.11;99122.66;4992521;28;20054;-62
2022/06/19 03:54:26;;;;;;;10.30;2.97;;;;;;;18.79;47.96;99128.97;4992227;28;20449;-62
2022/06/19 03:56:53;;;;;;;12.32;2.90;;;;;;;18.77;47.92;99130.13;4992834;28;20062;-62
2022/06/19 03:59:19;;;;;;;11.52;2.50;;;;;;;18.76;48.12;99147.94;4991752;28;20054;-65
2022/06/19 04:01:46;;;;;;;15.85;3.00;;;;;;;18.73;48.06;99154.44;4992417;28;20623;-64
2022/06/19 04:04:12;;;;;;;10.23;2.45;;;;;;;18.74;48.19;99166.78;4992333;28;20113;-62
2022/06/19 04:06:41;;;;;;;8.10;2.17;;;;;;;18.76;48.05;99179.94;4992042;28;20422;-62
2022/06/19 04:09:13;;;;;;;9.98;2.40;;;;;;;18.79;48.09;99186.78;4990568;28;20050;-62
2022/06/19 04:11:40;;;;;;;9.88;2.25;;;;;;;18.83;47.88;99181.00;4990723;28;20050;-62
2022/06/19 04:14:08;;;;;;;14.25;2.67;;;;;;;18.85;47.63;99176.38;4992329;28;20054;-62
2022/06/19 04:16:34;;;;;;;13.35;2.58;;;;;;;18.88;47.93;99167.22;4990799;28;20046;-62
2022/06/19 04:19:04;;;;;;;9.35;2.90;;;;;;;18.89;48.05;99176.88;4991848;28;20092;-62
2022/06/19 04:21:33;;;;;;;11.55;2.50;;;;;;;18.89;47.76;99172.38;4992063;28;20069;-63
2022/06/19 04:24:05;;;;;;;9.95;2.47;;;;;;;18.89;48.09;99193.69;4990183;28;20050;-63
2022/06/19 04:26:35;;;;;;;15.25;2.65;;;;;;;18.91;48.40;99192.72;4992188;28;20050;-63
2022/06/19 04:29:03;;;;;;;10.07;2.33;;;;;;;18.93;48.02;99202.25;4991685;28;20046;-64
2022/06/19 04:31:30;;;;;;;8.98;2.83;;;;;;;18.95;48.17;99218.09;4991990;28;20455;-62
2022/06/19 04:33:57;;;;;;;10.80;2.55;;;;;;;18.97;48.51;99234.78;4991317;28;20073;-62
2022/06/19 04:36:25;;;;;;;9.13;2.55;;;;;;;18.99;48.55;99230.13;4991612;28;20058;-64
2022/06/19 04:38:54;;;;;;;11.88;2.42;;;;;;;19.01;48.38;99194.31;4991147;28;20058;-63
2022/06/19 04:41:25;;;;;;;11.35;2.22;;;;;;;19.01;48.82;99198.78;4991583;28;20054;-62
2022/06/19 04:43:52;;;;;;;13.55;2.88;;;;;;;19.00;48.80;99197.94;4990333;28;20054;-62
2022/06/19 04:46:20;;;;;;;12.18;2.65;;;;;;;19.02;49.01;99192.47;4991690;28;20097;-62
2022/06/19 04:48:47;;;;;;;14.98;2.85;;;;;;;19.03;48.63;99194.16;4991360;28;20050;-63
2022/06/19 04:51:14;;;;;;;10.20;2.63;;;;;;;19.04;48.71;99232.31;4991347;28;20051;-62
2022/06/19 04:53:41;;;;;;;14.18;2.30;;;;;;;19.04;49.11;99302.50;4990090;28;20063;-62
2022/06/19 04:56:09;;;;;;;11.23;2.88;;;;;;;19.05;49.39;99295.34;4991692;28;20108;-63
2022/06/19 04:58:36;;;;;;;20.90;2.90;;;;;;;19.07;49.07;99232.03;4990089;28;20563;-61
2022/06/19 05:01:09;;;;;;;12.88;3.15;;;;;;;19.08;49.38;99217.72;4991465;28;20406;-64
2022/06/19 05:03:37;;;;;;;11.98;2.80;;;;;;;19.10;49.00;99232.56;4989993;28;20526;-62
2022/06/19 05:06:04;;;;;;;10.88;2.38;;;;;;;19.10;48.83;99245.91;4989891;28;20096;-63
2022/06/19 05:08:32;;;;;;;12.63;2.78;;;;;;;19.12;48.96;99233.25;4991211;28;20054;-62
2022/06/19 05:10:59;;;;;;;9.05;2.60;;;;;;;19.12;48.68;99198.56;4991477;28;20051;-63
2022/06/19 05:13:26;;;;;;;13.63;2.70;;;;;;;19.14;48.83;99185.91;4991283;28;20446;-62
2022/06/19 05:16:05;;;;;;;11.15;2.42;;;;;;;19.11;49.03;99185.41;4991262;28;20051;-61
2022/06/19 05:18:34;;;;;;;9.80;2.70;;;;;;;19.17;48.90;99189.28;4989694;28;20462;-61
2022/06/19 05:21:01;;;;;;;9.52;2.63;;;;;;;19.21;48.97;99174.63;4991366;28;20061;-62
2022/06/19 05:23:29;;;;;;;22.73;2.45;;;;;;;19.25;48.66;99162.63;4991212;28;20115;-61
2022/06/19 05:26:05;;;;;;;11.32;2.35;;;;;;;19.25;49.17;99181.31;4989895;28;20058;-63
2022/06/19 05:28:33;;;;;;;8.57;2.10;;;;;;;19.32;48.59;99201.00;4989684;28;20055;-63
2022/06/19 05:31:00;;;;;;;10.32;1.88;;;;;;;19.38;49.11;99212.88;4990923;28;20065;-63
2022/06/19 05:33:28;;;;;;;9.60;2.38;;;;;;;19.45;48.62;99211.28;4990864;28;20051;-65
2022/06/19 05:35:55;;;;;;;18.23;2.40;;;;;;;19.52;48.83;99193.59;4992946;28;20054;-62
2022/06/19 05:38:22;;;;;;;11.98;2.67;;;;;;;19.56;48.55;99194.13;4993465;28;20046;-62
2022/06/19 05:40:53;;;;;;;8.88;2.22;;;;;;;19.56;48.65;99191.47;4994666;28;20108;-63
2022/06/19 05:43:21;;;;;;;7.57;1.67;;;;;;;19.58;48.34;99168.09;4994689;28;20058;-62
2022/06/19 05:45:56;;;;;;;8.68;2.00;;;;;;;19.56;48.29;99113.22;4993411;28;20058;-64
2022/06/19 05:48:24;;;;;;;7.82;2.10;;;;;;;19.52;48.48;99102.03;4993385;28;20043;-61
2022/06/19 05:51:03;;;;;;;12.95;2.70;;;;;;;19.45;48.89;99117.00;4994562;28;20462;-72
2022/06/19 05:53:32;;;;;;;13.48;2.25;;;;;;;19.43;49.08;99111.81;4993263;28;20047;-65
2022/06/19 05:55:59;;;;;;;11.43;2.58;;;;;;;19.41;49.31;99108.50;4994482;28;20053;-69
2022/06/19 05:58:26;;;;;;;13.25;2.53;;;;;;;19.38;49.04;99104.31;4992982;28;20046;-64
2022/06/19 06:00:53;;;;;;;10.82;2.28;;;;;;;19.39;49.10;99115.81;4994210;28;20100;-61
2022/06/19 06:03:21;;;;;;;12.98;2.63;;;;;;;19.38;49.58;99098.97;4994300;28;20082;-65
2022/06/19 06:05:49;;;;;;;10.55;2.80;;;;;;;19.42;49.71;99101.31;4992931;28;20046;-66
2022/06/19 06:08:17;;;;;;;18.50;2.92;;;;;;;19.45;49.83;99072.47;4994093;28;20495;-61
2022/06/19 06:10:49;;;;;;;9.07;2.17;;;;;;;19.48;49.89;99061.47;4993181;28;20043;-62
2022/06/19 06:13:17;;;;;;;8.95;2.65;;;;;;;19.53;49.44;99055.66;4993122;28;20046;-61
2022/06/19 06:15:47;;;;;;;20.20;2.60;;;;;;;19.55;49.98;99050.97;4994272;28;20090;-62
2022/06/19 06:18:15;;;;;;;11.57;3.33;;;;;;;19.60;49.77;99040.66;4994090;28;20440;-64
2022/06/19 06:20:43;;;;;;;11.70;2.63;;;;;;;19.65;49.45;99050.81;4994102;28;20097;-62
2022/06/19 06:23:10;;;;;;;12.55;2.25;;;;;;;19.67;49.67;99033.63;4994459;28;20490;-62
2022/06/19 06:25:40;;;;;;;14.52;2.72;;;;;;;19.70;49.44;99018.31;4993854;28;20407;-62
2022/06/19 06:28:12;;;;;;;12.73;2.80;;;;;;;19.74;49.48;99030.31;4994200;28;20077;-62
2022/06/19 06:30:39;;;;;;;11.40;2.00;;;;;;;19.76;49.30;99021.16;4993796;28;20478;-62
2022/06/19 06:33:06;;;;;;;10.23;2.45;;;;;;;19.79;48.78;99028.84;4993752;28;20450;-62
2022/06/19 06:35:32;;;;;;;11.82;2.13;;;;;;;19.82;48.72;99049.03;4993819;28;20057;-61
2022/06/19 06:38:00;;;;;;;18.30;2.28;;;;;;;19.84;48.83;99049.69;4994248;28;20054;-62
2022/06/19 06:40:27;;;;;;;15.40;2.63;;;;;;;19.86;48.71;99034.34;4992482;28;20061;-61
2022/06/19 06:42:54;;;;;;;8.43;2.45;;;;;;;19.89;48.98;99028.66;4993922;28;20058;-61
2022/06/19 06:45:21;;;;;;;12.25;2.80;;;;;;;19.92;48.80;99017.66;4993870;28;20057;-65
2022/06/19 06:47:48;;;;;;;12.48;2.65;;;;;;;19.97;48.72;99021.66;4994083;28;20062;-61
2022/06/19 06:50:16;;;;;;;9.80;2.03;;;;;;;20.02;48.93;99025.53;4992167;28;20129;-62
2022/06/19 06:52:43;;;;;;;10.30;2.47;;;;;;;20.11;48.96;99069.09;4993939;28;20058;-61
2022/06/19 06:55:10;;;;;;;6.85;1.95;;;;;;;20.17;48.89;99087.16;4993982;28;20046;-63
2022/06/19 06:57:37;;;;;;;27.55;2.60;;;;;;;20.26;48.65;99097.84;4993723;28;20391;-63
2022/06/19 07:00:05;;;;;;;12.18;2.67;;;;;;;20.35;48.18;99107.53;4993307;28;20096;-63
2022/06/19 07:02:32;;;;;;;7.18;2.05;;;;;;;20.43;47.75;99125.38;4993465;28;20460;-64
2022/06/19 07:04:59;;;;;;;9.07;2.47;;;;;;;20.49;47.82;99135.44;4993327;28;20054;-62
2022/06/19 07:07:25;;;;;;;12.30;1.83;;;;;;;20.54;47.68;99135.75;4993455;28;20058;-65
2022/06/19 07:09:52;;;;;;;6.13;1.92;;;;;;;20.60;47.48;99147.63;4993047;28;20054;-62
2022/06/19 07:12:19;;;;;;;7.80;2.03;;;;;;;20.67;47.56;99161.16;4993804;28;20105;-62
2022/06/19 07:14:46;;;;;;;8.75;2.25;;;;;;;20.73;47.87;99175.66;4993255;28;20101;-64
2022/06/19 07:17:12;;;;;;;7.38;1.80;;;;;;;20.82;47.72;99191.53;4993226;28;20054;-62
2022/06/19 07:19:39;;;;;;;12.30;2.72;;;;;;;20.91;47.42;99183.53;4993151;28;20046;-62
2022/06/19 07:22:10;;;;;;;9.63;2.20;;;;;;;21.01;47.12;99194.06;4993077;28;20050;-65
2022/06/19 07:24:37;;;;;;;7.78;1.85;;;;;;;21.11;47.08;99199.25;4993073;28;20112;-62
2022/06/19 07:27:04;;;;;;;10.82;1.95;;;;;;;21.19;47.24;99205.41;4993264;28;20078;-62
2022/06/19 07:29:31;;;;;;;14.98;2.30;;;;;;;21.28;47.03;99221.44;4992629;28;20050;-62
2022/06/19 07:31:57;;;;;;;10.82;2.30;;;;;;;21.37;46.83;99207.03;4993432;28;20458;-62
2022/06/19 07:34:24;;;;;;;9.43;2.10;;;;;;;21.46;46.72;99216.69;4993008;28;20050;-63
2022/06/19 07:36:58;;;;;;;10.15;2.28;;;;;;;21.57;46.64;99222.72;4992780;28;20174;-63
2022/06/19 07:39:25;;;;;;;5.82;1.80;;;;;;;21.67;46.53;99212.63;4992600;28;20058;-63
2022/06/19 07:41:51;;;;;;;7.55;2.00;;;;;;;21.77;46.41;99230.34;4992912;28;20109;-62
2022/06/19 07:44:18;;;;;;;9.40;1.85;;;;;;;21.86;46.65;99248.91;4992744;28;20054;-62
2022/06/19 07:52:15;;;;;;;9.30;2.13;;;;;;;22.19;46.15;99230.97;4992525;28;20141;-62
2022/06/19 07:54:42;;;;;;;9.38;2.15;;;;;;;22.28;46.05;99229.09;4992333;28;20054;-62
2022/06/19 07:57:08;;;;;;;9.13;2.25;;;;;;;22.35;45.98;99233.56;4992416;28;20050;-65
2022/06/19 07:59:35;;;;;;;8.85;2.00;;;;;;;22.42;46.02;99249.78;4991669;28;20054;-64
2022/06/19 08:02:02;;;;;;;11.38;2.40;;;;;;;22.50;46.00;99257.78;4992393;28;20129;-62
2022/06/19 08:04:34;;;;;;;14.43;2.47;;;;;;;22.62;46.35;99262.75;4992377;28;20124;-63
2022/06/19 08:07:11;;;;;;;6.72;2.10;;;;;;;22.73;45.84;99275.75;4992278;28;20042;-65
2022/06/19 08:09:37;;;;;;;11.02;2.38;;;;;;;22.89;45.68;99296.28;4991989;28;20046;-62
2022/06/19 08:12:04;;;;;;;10.25;2.08;;;;;;;23.01;45.40;99295.84;4992349;28;20054;-62
2022/06/19 08:14:31;;;;;;;5.90;2.03;;;;;;;23.09;44.95;99290.41;4992061;28;20050;-63
2022/06/19 08:16:58;;;;;;;14.35;2.90;;;;;;;23.16;44.96;99295.88;4992232;28;20050;-63
2022/06/19 08:19:24;;;;;;;9.68;2.28;;;;;;;23.22;44.90;99303.22;4991804;28;20130;-62
2022/06/19 08:21:51;;;;;;;6.40;2.08;;;;;;;23.29;44.85;99306.00;4991960;28;20054;-65
2022/06/19 08:24:18;;;;;;;7.53;2.10;;;;;;;23.36;44.57;99308.84;4992167;28;20058;-63
2022/06/19 08:26:45;;;;;;;6.90;2.10;;;;;;;23.44;44.76;99322.19;4974977;28;20054;-62
2022/06/19 08:29:12;;;;;;;8.43;2.17;;;;;;;23.53;44.41;99320.25;4991863;28;20068;-63
2022/06/19 08:31:38;;;;;;;10.65;2.33;;;;;;;23.59;44.36;99326.72;4991784;28;20454;-63
2022/06/19 08:34:05;;;;;;;9.02;2.00;;;;;;;23.64;44.08;99341.28;4991928;28;20493;-63
2022/06/19 08:36:34;;;;;;;7.55;1.95;;;;;;;23.68;44.59;99350.66;4991360;28;20050;-63
2022/06/19 08:39:05;;;;;;;9.80;2.50;;;;;;;23.74;44.21;99337.50;4990054;28;20100;-63
2022/06/19 08:41:53;;;;;;;10.07;2.13;;;;;;;23.82;43.73;99340.91;4991719;28;20057;-63
2022/06/19 08:44:38;;;;;;;8.00;1.88;;;;;;;23.90;43.49;99323.03;4991622;28;20124;-62
2022/06/19 08:47:52;;;;;;;10.77;2.50;;;;;;;23.95;44.27;99351.03;4991696;28;20078;-63
2022/06/19 08:50:54;;;;;;;9.18;1.95;;;;;;;24.06;44.65;99371.25;4930638;29;20149;-62
2022/06/19 08:53:45;;;;;;;8.82;2.17;;;;;;;24.20;43.99;99372.28;4930953;29;20052;-62
2022/06/19 08:56:43;;;;;;;9.77;2.72;;;;;;;24.30;44.38;99380.06;4988071;28;20058;-63
2022/06/19 08:59:40;;;;;;;10.13;2.30;;;;;;;24.40;43.61;99371.69;4991046;28;20054;-62
2022/06/19 09:02:28;;;;;;;10.45;2.50;;;;;;;24.46;43.35;99370.97;4991353;28;20120;-63
2022/06/19 09:08:37;;;;;;;13.30;2.80;;;;;;;24.47;43.31;99379.84;4977233;28;20112;-63
2022/06/19 09:11:16;;;;;;;8.43;2.15;;;;;;;24.47;43.22;99369.09;4991563;28;20056;-63
2022/06/19 09:13:53;;;;;;;7.55;1.90;;;;;;;24.50;43.58;99374.09;4991156;28;20109;-64
2022/06/19 09:16:31;;;;;;;7.90;2.20;;;;;;;24.52;43.54;99369.34;4991388;28;20093;-64
2022/06/19 09:19:12;;;;;;;9.27;2.10;;;;;;;24.55;44.37;99352.84;4991187;28;20454;-62
2022/06/19 09:22:04;;;;;;;8.25;2.10;;;;;;;24.60;43.88;99358.47;4991671;28;20482;-62
2022/06/19 09:24:45;;;;;;;7.00;2.05;;;;;;;24.68;42.75;99389.00;4991482;28;20113;-62
2022/06/19 09:27:15;;;;;;;10.48;2.42;;;;;;;24.69;42.34;99429.19;4991480;28;20050;-62
2022/06/19 09:30:00;;;;;;;9.93;2.25;;;;;;;24.64;42.71;99423.53;4990975;28;20057;-62
2022/06/19 09:33:02;;;;;;;8.65;2.63;;;;;;;24.56;42.92;99386.78;4989470;28;20537;-62
2022/06/19 09:35:46;;;;;;;8.30;2.40;;;;;;;24.55;42.62;99405.81;4962697;28;20058;-63
2022/06/19 09:38:42;;;;;;;8.43;2.17;;;;;;;24.51;42.94;99408.06;4989337;28;20057;-66
2022/06/19 09:41:17;;;;;;;11.00;2.28;;;;;;;24.45;42.60;99417.69;4977953;28;20442;-62
2022/06/19 09:43:52;;;;;;;9.93;2.78;;;;;;;24.45;43.62;99416.88;4991136;28;20051;-62
2022/06/19 09:46:31;;;;;;;9.07;2.28;;;;;;;24.50;44.12;99395.63;4990883;28;20058;-63
2022/06/19 09:49:02;;;;;;;12.98;2.72;;;;;;;24.59;42.76;99381.03;4989431;28;20380;-66
2022/06/19 09:51:31;;;;;;;10.18;2.40;;;;;;;24.68;42.30;99367.47;4990906;28;20471;-62
2022/06/19 09:54:03;;;;;;;8.88;1.98;;;;;;;24.71;41.94;99348.25;4991014;28;20050;-65
2022/06/19 09:56:30;;;;;;;6.03;2.17;;;;;;;24.72;42.27;99349.94;4989554;28;20529;-65
2022/06/19 09:59:16;;;;;;;6.97;2.00;;;;;;;24.64;42.51;99372.41;4990325;28;20050;-63
2022/06/19 10:01:46;;;;;;;7.63;2.10;;;;;;;24.63;41.74;99354.56;4990180;28;20101;-63
2022/06/19 10:04:24;;;;;;;6.32;1.90;;;;;;;24.54;41.97;99340.41;4991287;28;20057;-63
2022/06/19 10:06:55;;;;;;;7.80;1.80;;;;;;;24.50;41.67;99328.38;4990726;28;20042;-63
2022/06/19 10:09:37;;;;;;;6.32;1.73;;;;;;;24.38;41.79;99325.34;4990466;28;20410;-63
2022/06/19 10:12:07;;;;;;;6.63;1.63;;;;;;;24.34;40.80;99318.66;4990507;28;20116;-62
2022/06/19 10:14:41;;;;;;;5.93;1.75;;;;;;;24.22;40.10;99326.38;4990682;28;20057;-63
2022/06/19 10:17:23;;;;;;;8.93;2.17;;;;;;;24.04;40.91;99308.75;4989466;28;20569;-65
2022/06/19 10:20:03;;;;;;;4.55;1.30;;;;;;;23.95;40.31;99317.94;4990636;28;20042;-62
2022/06/19 10:22:49;;;;;;;5.93;1.52;;;;;;;23.80;40.47;99326.84;4993503;28;20270;-62
2022/06/19 10:25:37;;;;;;;5.90;1.95;;;;;;;23.65;40.51;99313.41;4993144;28;20438;-62
2022/06/19 10:28:22;;;;;;;7.55;1.90;;;;;;;23.49;40.83;99217.72;4994080;28;20117;-69
2022/06/19 10:31:15;;;;;;;9.73;2.03;;;;;;;23.37;41.61;99232.59;4994011;28;20526;-62
2022/06/19 10:34:05;;;;;;;5.38;1.60;;;;;;;23.29;42.38;99209.34;4993929;28;20051;-63
2022/06/19 10:36:56;;;;;;;7.95;2.17;;;;;;;23.21;43.76;99210.25;4993922;28;20050;-63
2022/06/19 10:39:41;;;;;;;6.43;1.25;;;;;;;23.25;43.98;99241.06;4993624;28;20049;-64
2022/06/19 10:42:26;;;;;;;7.75;1.65;;;;;;;23.26;44.01;99258.03;4993833;28;20042;-63
2022/06/19 10:45:27;;;;;;;6.00;1.45;;;;;;;23.33;44.11;99239.34;4993655;28;20054;-63
2022/06/19 10:48:23;;;;;;;6.57;2.03;;;;;;;23.44;44.80;99244.28;4993662;28;20046;-62
2022/06/19 10:51:21;;;;;;;4.55;1.40;;;;;;;23.65;45.44;99258.81;4993707;28;20050;-62
2022/06/19 10:53:58;;;;;;;7.05;1.92;;;;;;;23.98;45.18;99271.88;4966646;28;20054;-63
2022/06/19 10:56:59;;;;;;;8.32;2.08;;;;;;;24.30;44.03;99279.72;4992676;28;20058;-65
2022/06/19 10:59:27;;;;;;;5.43;1.65;;;;;;;24.62;43.54;99274.06;4993491;28;20078;-62
2022/06/19 11:05:13;;;;;;;7.15;1.90;;;;;;;25.08;43.01;99305.16;4993752;28;20058;-63
2022/06/19 11:07:40;;;;;;;9.73;2.00;;;;;;;25.39;43.54;99309.34;4992176;28;20454;-63
2022/06/19 11:10:17;;;;;;;4.95;1.63;;;;;;;25.75;43.01;99315.59;4992145;28;20490;-63
2022/06/19 11:12:56;;;;;;;4.97;1.58;;;;;;;26.18;42.15;99324.53;4993385;28;20054;-64
2022/06/19 11:15:36;;;;;;;7.95;1.75;;;;;;;26.63;42.00;99322.22;4993432;28;20108;-63
2022/06/19 11:18:12;;;;;;;5.13;1.83;;;;;;;27.13;41.03;99323.75;4993467;28;20051;-63
2022/06/19 11:21:05;;;;;;;6.00;1.55;;;;;;;27.65;41.13;99315.03;4993152;28;20050;-63
2022/06/19 11:23:38;;;;;;;6.13;2.22;;;;;;;28.18;40.18;99313.19;4992210;28;20058;-64
2022/06/19 11:26:07;;;;;;;;;;;;;;;28.58;41.66;99312.19;4993595;28;20062;-63
2022/06/19 11:28:58;;;;;;;5.10;1.67;;;;;;;29.12;39.61;99297.47;4992888;28;20443;-63
2022/06/19 11:31:33;;;;;;;4.80;1.65;;;;;;;29.54;37.75;99287.91;4982846;28;20050;-64
2022/06/19 11:37:08;;;;;;;6.65;1.92;;;;;;;30.27;37.80;99301.72;4992614;28;20495;-65
2022/06/19 11:39:38;;;;;;;12.02;1.73;;;;;;;30.56;37.40;99302.78;4992586;28;20104;-65
2022/06/19 11:42:24;;;;;;;6.43;1.85;;;;;;;30.83;37.14;99292.59;4991711;28;20049;-63
2022/06/19 11:44:55;;;;;;;7.20;1.90;;;;;;;31.11;36.21;99291.09;4993050;28;20080;-63
2022/06/19 11:47:34;;;;;;;4.57;1.80;;;;;;;31.25;35.67;99294.41;4991493;28;20056;-63
2022/06/19 11:50:15;;;;;;;19.63;3.00;;;;;;;31.37;35.61;99299.88;4992309;28;20058;-62
2022/06/19 11:52:48;;;;;;;16.58;2.60;;;;;;;31.48;34.55;99304.50;4992813;28;20557;-62
2022/06/19 11:55:21;;;;;;;7.45;1.65;;;;;;;31.61;35.40;99295.25;4991188;28;20054;-63
2022/06/19 11:57:55;;;;;;;3.17;1.52;;;;;;;31.77;34.26;99301.03;4991376;28;20076;-63
2022/06/19 12:00:28;;;;;;;5.88;1.88;;;;;;;31.93;34.88;99308.47;4992501;28;20054;-63
2022/06/19 12:02:58;;;;;;;7.10;2.58;;;;;;;32.07;34.00;99292.69;4991243;28;20112;-63
2022/06/19 12:05:40;;;;;;;5.95;1.92;;;;;;;32.11;33.58;99299.28;4992617;28;20057;-63
2022/06/19 12:08:27;;;;;;;4.78;1.60;;;;;;;32.10;33.40;99303.09;4975658;28;20089;-64